Time;durP1;ratioP1;P1;durP2;ratioP2;P2;SDS_P1;SDS_P2;PMS_P1;PMS_P2;Temp;Humidity;BMP_temperature;BMP_pressure;BME280_temperature;BME280_humidity;BME280_pressure;Samples;Min_cycle;Max_cycle;Signal;HPM_P1;HPM_P2
2023/02/16 00:01:19;;;;;;;1999.90;999.90;;;8.30;99.90;;;;;;5073179;28;20035;-77
2023/02/16 00:03:46;;;;;;;1999.90;999.90;;;8.30;99.90;;;;;;5073506;28;20047;-81
2023/02/16 00:06:14;;;;;;;1999.90;999.90;;;8.30;99.90;;;;;;5073218;28;20102;-82
2023/02/16 00:08:41;;;;;;;1999.90;999.90;;;8.30;99.90;;;;;;5073104;28;20392;-77
2023/02/16 00:14:17;;;;;;;1999.90;999.90;;;8.20;99.90;;;;;;5073176;28;20542;-82
2023/02/16 00:16:43;;;;;;;1999.90;999.90;;;8.20;99.90;;;;;;5097155;28;20081;-81
2023/02/16 00:19:24;;;;;;;1999.90;999.90;;;8.30;99.90;;;;;;5113599;28;20023;-82
2023/02/16 00:21:52;;;;;;;1999.90;999.90;;;8.20;99.90;;;;;;5095387;28;20057;-77
2023/02/16 00:24:18;;;;;;;1999.90;999.90;;;8.30;99.90;;;;;;5113296;28;20028;-77
2023/02/16 00:26:44;;;;;;;1999.90;999.90;;;8.30;99.90;;;;;;5094485;28;20121;-82
2023/02/16 00:29:21;;;;;;;1999.90;999.90;;;8.30;99.90;;;;;;5113615;28;20012;-83
2023/02/16 00:31:47;;;;;;;1999.90;999.90;;;8.40;99.90;;;;;;5113577;28;20373;-82
2023/02/16 00:34:30;;;;;;;1999.90;999.90;;;8.50;99.90;;;;;;5113374;28;20035;-82
2023/02/16 00:36:57;;;;;;;1999.90;999.90;;;8.60;99.90;;;;;;5094626;28;20395;-77
2023/02/16 00:39:24;;;;;;;1999.90;999.90;;;8.60;99.90;;;;;;5093913;28;20021;-82
2023/02/16 00:41:52;;;;;;;1999.90;999.90;;;8.60;99.90;;;;;;5076775;28;20021;-81
2023/02/16 00:44:20;;;;;;;1999.90;999.90;;;8.60;99.90;;;;;;5095603;28;20035;-82
2023/02/16 00:46:46;;;;;;;1999.90;999.90;;;8.70;99.90;;;;;;5075514;28;20036;-77
2023/02/16 00:49:16;;;;;;;1999.90;999.90;;;8.70;99.90;;;;;;5092629;28;20524;-82
2023/02/16 00:51:42;;;;;;;1999.90;999.90;;;8.70;99.90;;;;;;5092385;28;20027;-77
2023/02/16 00:54:08;;;;;;;1999.90;999.90;;;8.60;99.90;;;;;;5077580;28;20032;-77
2023/02/16 00:56:34;;;;;;;1999.90;999.90;;;8.60;99.90;;;;;;5072160;28;20025;-82
2023/02/16 00:59:01;;;;;;;1999.90;999.90;;;8.60;99.90;;;;;;5072090;28;20098;-81
2023/02/16 01:01:30;;;;;;;1999.90;999.90;;;8.60;99.90;;;;;;5072546;28;20024;-82
2023/02/16 01:04:03;;;;;;;1999.90;999.90;;;8.70;99.90;;;;;;5071867;28;20035;-77
2023/02/16 01:12:01;;;;;;;1999.90;999.90;;;8.70;99.90;;;;;;5072270;28;20035;-81
2023/02/16 01:14:30;;;;;;;1999.90;999.90;;;8.70;99.90;;;;;;5071995;28;20099;-76
2023/02/16 01:16:56;;;;;;;1999.90;999.90;;;8.70;99.90;;;;;;5071200;28;20016;-76
2023/02/16 01:19:21;;;;;;;1999.90;999.90;;;8.80;99.90;;;;;;5072218;28;20457;-81
2023/02/16 01:21:47;;;;;;;1999.90;999.90;;;8.80;99.90;;;;;;5072165;28;20016;-81
2023/02/16 01:24:13;;;;;;;1999.90;999.90;;;8.80;99.90;;;;;;5071865;28;20021;-81
2023/02/16 01:26:43;;;;;;;1999.90;999.90;;;8.80;99.90;;;;;;5071287;28;20070;-76
2023/02/16 01:29:14;;;;;;;1999.90;999.90;;;8.80;99.90;;;;;;5071772;28;20054;-76
2023/02/16 01:31:40;;;;;;;1999.90;999.90;;;8.80;99.90;;;;;;5071999;28;20115;-76
2023/02/16 01:34:06;;;;;;;1999.90;999.90;;;8.90;99.90;;;;;;5071917;28;20476;-81
2023/02/16 01:36:37;;;;;;;1999.90;999.90;;;8.90;99.90;;;;;;5071729;28;20029;-81
2023/02/16 01:39:04;;;;;;;1999.90;999.90;;;8.90;99.90;;;;;;5069172;28;20012;-81
2023/02/16 01:41:45;;;;;;;1999.90;999.90;;;9.00;99.90;;;;;;5092101;28;20050;-76
2023/02/16 01:44:27;;;;;;;1999.90;999.90;;;9.10;99.90;;;;;;5091835;28;20024;-76
2023/02/16 01:46:58;;;;;;;1999.90;999.90;;;9.10;99.90;;;;;;5074632;28;20420;-80
2023/02/16 01:49:24;;;;;;;1999.90;999.90;;;9.10;99.90;;;;;;5071359;28;20056;-80
2023/02/16 01:52:26;;;;;;;1999.90;999.90;;;9.20;99.90;;;;;;5071834;28;20056;-76
2023/02/16 01:55:12;;;;;;;1999.90;999.90;;;9.20;99.90;;;;;;5051394;28;20117;-80
2023/02/16 01:57:46;;;;;;;1999.90;999.90;;;9.20;99.90;;;;;;5051908;28;20529;-76
2023/02/16 02:00:27;;;;;;;1999.90;999.90;;;9.20;99.90;;;;;;5051599;28;20025;-80
2023/02/16 02:05:33;;;;;;;1999.90;999.90;;;9.20;99.90;;;;;;5051581;28;20106;-80
2023/02/16 02:05:46;;;;;;;1999.90;999.90;;;9.30;99.90;;;;;;5051403;28;20116;-75
2023/02/16 02:08:50;;;;;;;1999.90;999.90;;;9.40;99.90;;;;;;5051381;28;20400;-76
2023/02/16 02:11:24;;;;;;;1999.90;999.90;;;9.40;99.90;;;;;;5033505;28;20071;-80
2023/02/16 02:13:57;;;;;;;1999.90;999.90;;;9.40;99.90;;;;;;5051571;28;20052;-76
2023/02/16 02:16:24;;;;;;;1999.90;999.90;;;9.40;99.90;;;;;;5054816;28;20075;-80
2023/02/16 02:18:50;;;;;;;1999.90;999.90;;;9.40;99.90;;;;;;5055114;28;20554;-76
2023/02/16 02:24:46;;;;;;;1999.90;999.90;;;9.40;99.90;;;;;;5055443;28;20079;-80
2023/02/16 02:27:11;;;;;;;1999.90;999.90;;;9.50;99.90;;;;;;5054311;28;20104;-80
2023/02/16 02:30:03;;;;;;;1999.90;999.90;;;9.50;99.90;;;;;;5055103;28;20108;-80
2023/02/16 02:32:53;;;;;;;1999.90;999.90;;;9.50;99.90;;;;;;5043663;28;20039;-76
2023/02/16 02:35:50;;;;;;;1999.90;999.90;;;9.50;99.90;;;;;;5054976;28;20055;-80
2023/02/16 02:38:40;;;;;;;1999.90;999.90;;;9.50;99.90;;;;;;5063468;28;20107;-80
2023/02/16 02:41:21;;;;;;;1999.90;999.90;;;9.50;99.90;;;;;;5074750;28;20029;-80
2023/02/16 02:43:55;;;;;;;1999.90;999.90;;;9.50;99.90;;;;;;5074886;28;20075;-80
2023/02/16 02:46:32;;;;;;;1999.90;999.90;;;9.50;99.90;;;;;;5085430;28;20048;-80
2023/02/16 02:48:57;;;;;;;1999.90;999.90;;;9.50;99.90;;;;;;5094791;28;20016;-75
2023/02/16 02:51:29;;;;;;;1999.90;999.90;;;9.50;99.90;;;;;;5095031;28;20024;-80
2023/02/16 03:02:55;;;;;;;1999.90;999.90;;;9.50;99.90;;;;;;5074708;28;20040;-80
2023/02/16 03:05:23;;;;;;;1999.90;999.90;;;9.60;99.90;;;;;;5074407;28;20028;-79
2023/02/16 03:07:56;;;;;;;1999.90;999.90;;;9.60;99.90;;;;;;5074636;28;20071;-80
2023/02/16 03:13:20;;;;;;;1999.90;999.90;;;9.60;99.90;;;;;;5074095;28;20106;-75
2023/02/16 03:15:48;;;;;;;1999.90;999.90;;;9.60;99.90;;;;;;5056469;28;20124;-80
2023/02/16 03:29:20;;;;;;;1999.90;999.90;;;9.60;99.90;;;;;;5074223;28;20108;-75
2023/02/16 03:31:50;;;;;;;1999.90;999.90;;;9.60;99.90;;;;;;5056043;28;20023;-80
2023/02/16 03:34:18;;;;;;;1999.90;999.90;;;9.60;99.90;;;;;;5073926;28;20541;-81
2023/02/16 03:36:47;;;;;;;1999.90;999.90;;;9.50;99.90;;;;;;5073859;28;20021;-76
2023/02/16 03:39:13;;;;;;;1999.90;999.90;;;9.50;99.90;;;;;;5090619;28;20024;-76
2023/02/16 03:41:42;;;;;;;1999.90;999.90;;;9.50;99.90;;;;;;5094133;28;20024;-82
2023/02/16 03:44:08;;;;;;;1999.90;999.90;;;9.40;99.90;;;;;;5094012;28;20024;-82
2023/02/16 03:46:34;;;;;;;1999.90;999.90;;;9.50;99.90;;;;;;5064742;28;20128;-82
2023/02/16 03:49:00;;;;;;;1999.90;999.90;;;9.40;99.90;;;;;;5053522;28;20159;-81
2023/02/16 03:51:25;;;;;;;1999.90;999.90;;;9.40;99.90;;;;;;5053568;28;20093;-76
2023/02/16 03:53:51;;;;;;;1999.90;999.90;;;9.30;99.90;;;;;;5053344;28;20025;-76
2023/02/16 03:56:17;;;;;;;1999.90;999.90;;;9.40;99.90;;;;;;5053475;28;20029;-82
2023/02/16 03:58:42;;;;;;;1999.90;999.90;;;9.30;99.90;;;;;;5053477;28;20028;-77
2023/02/16 04:01:08;;;;;;;1999.90;999.90;;;9.30;99.90;;;;;;5053077;28;20029;-82
2023/02/16 04:03:34;;;;;;;1999.90;999.90;;;9.30;99.90;;;;;;5053361;28;20507;-82
2023/02/16 04:05:59;;;;;;;1999.90;999.90;;;9.20;99.90;;;;;;5053363;28;20032;-76
2023/02/16 04:08:25;;;;;;;1999.90;999.90;;;9.20;99.90;;;;;;5052957;28;20039;-81
2023/02/16 04:10:51;;;;;;;1999.90;999.90;;;9.20;99.90;;;;;;5053175;28;20033;-82
2023/02/16 04:13:17;;;;;;;1999.90;999.90;;;9.10;99.90;;;;;;5053094;28;20033;-81
2023/02/16 04:15:42;;;;;;;1999.90;999.90;;;9.10;99.90;;;;;;5027123;28;20052;-76
2023/02/16 04:18:08;;;;;;;1999.90;999.90;;;9.10;99.90;;;;;;5052669;28;20418;-76
2023/02/16 04:20:34;;;;;;;1999.90;999.90;;;9.10;99.90;;;;;;5052966;28;20036;-82
2023/02/16 04:23:01;;;;;;;1999.90;999.90;;;9.10;99.90;;;;;;5052661;28;20405;-81
2023/02/16 04:25:27;;;;;;;1999.90;999.90;;;9.00;99.90;;;;;;5053112;28;20029;-82
2023/02/16 04:27:54;;;;;;;1999.90;999.90;;;9.00;99.90;;;;;;5052288;28;20025;-76
2023/02/16 04:30:25;;;;;;;1999.90;999.90;;;9.00;99.90;;;;;;5034719;28;20082;-76
2023/02/16 04:32:51;;;;;;;1999.90;999.90;;;8.90;99.90;;;;;;5052627;28;20025;-76
2023/02/16 04:35:18;;;;;;;1999.90;999.90;;;8.90;99.90;;;;;;5052529;28;20485;-76
2023/02/16 04:37:43;;;;;;;1999.90;999.90;;;8.90;99.90;;;;;;5048384;28;20020;-81
2023/02/16 04:40:12;;;;;;;1999.90;999.90;;;8.90;99.90;;;;;;5059939;28;20451;-82
2023/02/16 04:42:39;;;;;;;1999.90;999.90;;;8.90;99.90;;;;;;5072546;28;20025;-76
2023/02/16 04:45:05;;;;;;;1999.90;999.90;;;8.90;99.90;;;;;;5077682;28;20055;-76
2023/02/16 04:47:31;;;;;;;1999.90;999.90;;;8.90;99.90;;;;;;5092949;28;20020;-82
2023/02/16 04:49:56;;;;;;;1999.90;999.90;;;8.90;99.90;;;;;;5092488;28;20032;-82
2023/02/16 04:52:25;;;;;;;1999.90;999.90;;;8.90;99.90;;;;;;5091314;28;20028;-82
2023/02/16 04:54:51;;;;;;;1999.90;999.90;;;8.90;99.90;;;;;;5072315;28;20033;-82
2023/02/16 04:57:18;;;;;;;1999.90;999.90;;;8.90;99.90;;;;;;5054277;28;20119;-82
2023/02/16 04:59:44;;;;;;;1999.90;999.90;;;8.90;99.90;;;;;;5072215;28;20020;-76
2023/02/16 05:02:10;;;;;;;1999.90;999.90;;;8.80;99.90;;;;;;5072207;28;20021;-81
2023/02/16 05:04:35;;;;;;;1999.90;999.90;;;8.80;99.90;;;;;;5071940;28;20106;-76
2023/02/16 05:07:01;;;;;;;1999.90;999.90;;;8.80;99.90;;;;;;5054243;28;20028;-76
2023/02/16 05:09:27;;;;;;;1999.90;999.90;;;8.80;99.90;;;;;;5072213;28;20086;-76
2023/02/16 05:14:44;;;;;;;1999.90;999.90;;;8.80;99.90;;;;;;5071901;28;20405;-81
2023/02/16 05:17:16;;;;;;;1999.90;999.90;;;8.70;99.90;;;;;;5053891;28;20370;-76
2023/02/16 05:19:43;;;;;;;1999.90;999.90;;;8.70;99.90;;;;;;5071988;28;20048;-82
2023/02/16 05:22:10;;;;;;;1999.90;999.90;;;8.70;99.90;;;;;;5072151;28;20044;-76
2023/02/16 05:24:36;;;;;;;1999.90;999.90;;;8.70;99.90;;;;;;5071847;28;20481;-76
2023/02/16 05:27:04;;;;;;;1999.90;999.90;;;8.70;99.90;;;;;;5071940;28;20048;-81
2023/02/16 05:29:30;;;;;;;1999.90;999.90;;;8.70;99.90;;;;;;5071558;28;20059;-76
2023/02/16 05:31:56;;;;;;;1999.90;999.90;;;8.70;99.90;;;;;;5072454;28;20445;-81
2023/02/16 05:34:22;;;;;;;1999.90;999.90;;;8.70;99.90;;;;;;5112497;28;20118;-76
2023/02/16 05:36:47;;;;;;;1999.90;999.90;;;8.70;99.90;;;;;;5101424;28;20115;-76
2023/02/16 05:39:13;;;;;;;1999.90;999.90;;;8.70;99.90;;;;;;5100952;28;20047;-81
2023/02/16 05:41:38;;;;;;;1999.90;999.90;;;8.70;99.90;;;;;;5112418;28;20035;-82
2023/02/16 05:44:05;;;;;;;1999.90;999.90;;;8.70;99.90;;;;;;5112447;28;20032;-82
2023/02/16 05:46:33;;;;;;;1999.90;999.90;;;8.70;99.90;;;;;;5098020;28;20097;-76
2023/02/16 05:49:00;;;;;;;1999.90;999.90;;;8.70;99.90;;;;;;5091496;28;20035;-81
2023/02/16 05:51:26;;;;;;;1999.90;999.90;;;8.70;99.90;;;;;;5095500;28;20024;-82
2023/02/16 05:53:51;;;;;;;1999.90;999.90;;;8.60;99.90;;;;;;5083622;28;20025;-82
2023/02/16 05:56:18;;;;;;;1999.90;999.90;;;8.60;99.90;;;;;;5057649;28;20548;-82
2023/02/16 05:58:44;;;;;;;1999.90;999.90;;;8.70;99.90;;;;;;5075670;28;20107;-81
2023/02/16 06:01:10;;;;;;;1999.90;999.90;;;8.60;99.90;;;;;;5075267;28;20154;-76
2023/02/16 06:03:36;;;;;;;1999.90;999.90;;;8.60;99.90;;;;;;5075867;28;20498;-76
2023/02/16 06:06:03;;;;;;;1999.90;999.90;;;8.60;99.90;;;;;;5075496;28;20119;-81
2023/02/16 06:08:30;;;;;;;1999.90;999.90;;;8.50;99.90;;;;;;5075491;28;20588;-81
2023/02/16 06:10:56;;;;;;;1999.90;999.90;;;8.50;99.90;;;;;;5075298;28;20021;-76
2023/02/16 06:13:22;;;;;;;1999.90;999.90;;;8.50;99.90;;;;;;5075313;28;20028;-76
2023/02/16 06:15:55;;;;;;;1999.90;999.90;;;8.50;99.90;;;;;;5075799;28;20021;-76
2023/02/16 06:18:21;;;;;;;1999.90;999.90;;;8.40;99.90;;;;;;5075127;28;20051;-82
2023/02/16 06:20:47;;;;;;;1999.90;999.90;;;8.40;99.90;;;;;;5075437;28;20051;-81
2023/02/16 06:23:14;;;;;;;1999.90;999.90;;;8.40;99.90;;;;;;5075180;28;20111;-81
2023/02/16 06:25:44;;;;;;;1999.90;999.90;;;8.40;99.90;;;;;;5057208;28;20025;-76
2023/02/16 06:28:10;;;;;;;1999.90;999.90;;;8.40;99.90;;;;;;5075159;28;20485;-76
2023/02/16 06:30:36;;;;;;;1999.90;999.90;;;8.40;99.90;;;;;;5073074;28;20024;-81
2023/02/16 06:33:03;;;;;;;1999.90;999.90;;;8.40;99.90;;;;;;5074726;28;20021;-76
2023/02/16 06:35:29;;;;;;;1999.90;999.90;;;8.40;99.90;;;;;;5074798;28;20017;-82
2023/02/16 06:37:54;;;;;;;1999.90;999.90;;;8.50;99.90;;;;;;5095226;28;20452;-81
2023/02/16 06:40:20;;;;;;;1999.90;999.90;;;8.40;99.90;;;;;;5094975;28;20020;-81
2023/02/16 06:42:46;;;;;;;1999.90;999.90;;;8.40;99.90;;;;;;5087470;28;20108;-77
2023/02/16 06:45:11;;;;;;;1999.90;999.90;;;8.40;99.90;;;;;;5085637;28;20052;-76
2023/02/16 06:47:37;;;;;;;1999.90;999.90;;;8.40;99.90;;;;;;5080829;28;20033;-76
2023/02/16 06:50:06;;;;;;;1999.90;999.90;;;8.40;99.90;;;;;;5080298;28;20477;-75
2023/02/16 06:52:31;;;;;;;1999.90;999.90;;;8.40;99.90;;;;;;5092630;28;20032;-76
2023/02/16 06:54:57;;;;;;;1999.90;999.90;;;8.50;99.90;;;;;;5079196;28;20024;-76
2023/02/16 06:57:23;;;;;;;1999.90;999.90;;;8.50;99.90;;;;;;5093435;28;20472;-80
2023/02/16 06:59:48;;;;;;;1999.90;999.90;;;8.50;99.90;;;;;;5097976;28;20361;-76
2023/02/16 07:02:14;;;;;;;1999.90;999.90;;;8.40;99.90;;;;;;5097146;28;20076;-77
2023/02/16 07:04:40;;;;;;;1999.90;999.90;;;8.50;99.90;;;;;;5092666;28;20064;-76
2023/02/16 07:07:05;;;;;;;1999.90;999.90;;;8.50;99.90;;;;;;5091811;28;20028;-76
2023/02/16 07:09:31;;;;;;;1999.90;999.90;;;8.50;99.90;;;;;;5085726;28;20540;-76
2023/02/16 07:11:57;;;;;;;1999.90;999.90;;;8.50;99.90;;;;;;5091367;28;20712;-80
2023/02/16 07:14:23;;;;;;;1999.90;999.90;;;8.50;99.90;;;;;;5093107;28;20032;-75
2023/02/16 07:16:48;;;;;;;1999.90;999.90;;;8.60;99.90;;;;;;5089638;28;20105;-80
2023/02/16 07:19:14;;;;;;;1999.90;999.90;;;8.60;99.90;;;;;;5088051;28;20039;-74
2023/02/16 07:21:40;;;;;;;1999.90;999.90;;;8.60;99.90;;;;;;5086854;28;20028;-75
2023/02/16 07:24:06;;;;;;;1999.90;999.90;;;8.60;99.90;;;;;;5083934;28;20032;-80
2023/02/16 07:26:32;;;;;;;1999.90;999.90;;;8.60;99.90;;;;;;5090325;28;20036;-79
2023/02/16 07:28:57;;;;;;;1999.90;999.90;;;8.60;99.90;;;;;;5094777;28;20051;-74
2023/02/16 07:31:26;;;;;;;1999.90;999.90;;;8.60;99.90;;;;;;5094643;28;20062;-74
2023/02/16 07:33:52;;;;;;;1999.90;999.90;;;8.60;99.90;;;;;;5072768;28;20396;-74
2023/02/16 07:36:17;;;;;;;1999.90;999.90;;;8.70;99.90;;;;;;5090719;28;20028;-74
2023/02/16 07:38:43;;;;;;;1999.90;999.90;;;8.70;99.90;;;;;;5082679;28;20036;-80
2023/02/16 07:41:09;;;;;;;1999.90;999.90;;;8.70;99.90;;;;;;5087307;28;20062;-74
2023/02/16 07:43:35;;;;;;;1999.90;999.90;;;8.70;99.90;;;;;;5088018;28;20389;-74
2023/02/16 07:46:01;;;;;;;1999.90;999.90;;;8.80;99.90;;;;;;5085992;28;20051;-77
2023/02/16 07:48:26;;;;;;;1999.90;999.90;;;8.80;99.90;;;;;;5091349;28;20028;-74
2023/02/16 07:50:52;;;;;;;1999.90;999.90;;;8.80;99.90;;;;;;5083931;28;20032;-80
2023/02/16 07:53:18;;;;;;;1999.90;999.90;;;8.80;99.90;;;;;;5096632;28;20093;-74
2023/02/16 07:55:44;;;;;;;1999.90;999.90;;;8.80;99.90;;;;;;5098350;28;20377;-75
2023/02/16 07:58:11;;;;;;;1999.90;999.90;;;8.80;99.90;;;;;;5078740;28;20115;-74
2023/02/16 08:00:36;;;;;;;1999.90;999.90;;;8.90;99.90;;;;;;5072334;28;20067;-75
2023/02/16 08:03:03;;;;;;;1999.90;999.90;;;8.80;99.90;;;;;;5089425;28;20750;-79
2023/02/16 08:05:29;;;;;;;1999.90;999.90;;;8.90;99.90;;;;;;5088899;28;20504;-79
2023/02/16 08:07:54;;;;;;;1999.90;999.90;;;8.90;99.90;;;;;;5091923;28;20031;-73
2023/02/16 08:10:20;;;;;;;1999.90;999.90;;;8.90;99.90;;;;;;5086081;28;20268;-76
2023/02/16 08:12:46;;;;;;;1999.90;999.90;;;8.90;99.90;;;;;;5071991;28;20039;-75
2023/02/16 08:15:12;;;;;;;1999.90;999.90;;;8.90;99.90;;;;;;5080358;28;20564;-74
2023/02/16 08:17:38;;;;;;;1999.90;999.90;;;9.00;99.90;;;;;;5087993;28;20595;-78
2023/02/16 08:20:05;;;;;;;1999.90;999.90;;;9.00;99.90;;;;;;5090050;28;20078;-75
2023/02/16 08:22:31;;;;;;;1999.90;999.90;;;9.00;99.90;;;;;;5078244;28;20066;-75
2023/02/16 08:24:59;;;;;;;1999.90;999.90;;;9.00;99.90;;;;;;5074611;28;20029;-74
2023/02/16 08:27:25;;;;;;;1999.90;999.90;;;9.10;99.90;;;;;;5086271;28;20124;-74
2023/02/16 08:29:51;;;;;;;1999.90;999.90;;;9.20;99.90;;;;;;5086940;28;20456;-74
2023/02/16 08:32:17;;;;;;;1999.90;999.90;;;9.20;99.90;;;;;;5086925;28;20044;-80
2023/02/16 08:34:43;;;;;;;1999.90;999.90;;;9.30;99.90;;;;;;5089768;28;20067;-79
2023/02/16 08:37:12;;;;;;;1999.90;999.90;;;9.30;99.90;;;;;;5091215;28;20048;-75
2023/02/16 08:39:37;;;;;;;1999.90;999.90;;;9.40;99.90;;;;;;5087626;28;20460;-79
2023/02/16 08:42:04;;;;;;;1999.90;999.90;;;9.30;99.90;;;;;;5091663;28;20020;-80
2023/02/16 08:44:29;;;;;;;1999.90;999.90;;;9.40;99.90;;;;;;5065965;28;20067;-75
2023/02/16 08:46:59;;;;;;;1999.90;999.90;;;9.50;99.90;;;;;;5085328;28;20397;-77
2023/02/16 08:49:24;;;;;;;1999.90;999.90;;;9.40;99.90;;;;;;5080527;28;20028;-78
2023/02/16 08:51:54;;;;;;;1999.90;999.90;;;9.50;99.90;;;;;;5084771;28;20417;-73
2023/02/16 08:54:25;;;;;;;1999.90;999.90;;;9.50;99.90;;;;;;5079645;28;20016;-78
2023/02/16 08:56:51;;;;;;;1999.90;999.90;;;9.50;99.90;;;;;;5077723;28;20067;-79
2023/02/16 08:59:19;;;;;;;1999.90;999.90;;;9.40;99.90;;;;;;5083412;28;20021;-74
2023/02/16 09:01:45;;;;;;;1999.90;999.90;;;9.50;99.90;;;;;;5075379;28;20056;-77
2023/02/16 09:04:11;;;;;;;1999.90;999.90;;;9.40;99.90;;;;;;5076580;28;20155;-72
2023/02/16 09:06:40;;;;;;;1999.90;999.90;;;9.40;99.90;;;;;;5084459;28;20451;-72
2023/02/16 09:09:07;;;;;;;1999.90;999.90;;;9.40;99.90;;;;;;5084499;28;20028;-78
2023/02/16 09:11:34;;;;;;;1999.90;999.90;;;9.50;99.90;;;;;;5065280;28;20039;-79
2023/02/16 09:14:00;;;;;;;1999.90;999.90;;;9.60;99.90;;;;;;5080928;28;20369;-73
2023/02/16 09:16:32;;;;;;;1999.90;999.90;;;9.70;99.90;;;;;;5067097;28;20027;-74
2023/02/16 09:19:00;;;;;;;1999.90;999.90;;;9.80;99.90;;;;;;5081966;28;20056;-74
2023/02/16 09:21:27;;;;;;;1999.90;999.90;;;9.90;99.90;;;;;;5075756;28;20032;-73
2023/02/16 09:23:54;;;;;;;1999.90;999.90;;;9.80;99.90;;;;;;5081422;28;20028;-73
2023/02/16 09:26:22;;;;;;;1999.90;999.90;;;9.80;99.90;;;;;;5081764;28;20029;-80
2023/02/16 09:28:49;;;;;;;1999.90;999.90;;;9.80;99.90;;;;;;5080427;28;20024;-73
2023/02/16 09:31:22;;;;;;;1999.90;999.90;;;10.00;99.90;;;;;;5084892;28;20039;-73
2023/02/16 09:33:48;;;;;;;1999.90;999.90;;;9.90;99.90;;;;;;5081581;28;20028;-76
2023/02/16 09:36:13;;;;;;;1999.90;999.90;;;10.00;99.90;;;;;;5087039;28;20024;-80
2023/02/16 09:38:40;;;;;;;1999.90;999.90;;;10.20;99.90;;;;;;5090417;28;20561;-79
2023/02/16 09:41:34;;;;;;;1999.90;999.90;;;10.40;99.90;;;;;;5060908;28;20051;-74
2023/02/16 09:44:08;;;;;;;1999.90;999.90;;;10.50;99.90;;;;;;5046933;28;20492;-74
2023/02/16 09:46:35;;;;;;;1999.90;999.90;;;10.40;99.90;;;;;;5073076;28;20048;-78
2023/02/16 09:49:02;;;;;;;1999.90;999.90;;;10.30;99.90;;;;;;5069077;28;20031;-78
2023/02/16 09:51:43;;;;;;;1999.90;999.90;;;10.20;99.90;;;;;;5073283;28;20164;-81
2023/02/16 09:54:39;;;;;;;1999.90;999.90;;;10.30;99.90;;;;;;5056729;28;20028;-78
2023/02/16 09:57:18;;;;;;;1999.90;999.90;;;10.20;99.90;;;;;;5071845;28;20031;-73
2023/02/16 09:59:50;;;;;;;1999.90;999.90;;;10.30;99.90;;;;;;5086899;28;20393;-77
2023/02/16 10:02:37;;;;;;;1999.90;999.90;;;10.60;99.90;;;;;;5080957;28;20028;-78
2023/02/16 10:05:11;;;;;;;1999.90;999.90;;;10.40;99.90;;;;;;5054562;28;20036;-78
2023/02/16 10:08:06;;;;;;;1999.90;999.90;;;10.20;99.90;;;;;;5068825;28;20035;-78
2023/02/16 10:10:44;;;;;;;1999.90;999.90;;;10.30;99.90;;;;;;5069801;28;20504;-75
2023/02/16 10:13:28;;;;;;;1999.90;999.90;;;10.40;99.90;;;;;;5074762;28;20039;-79
2023/02/16 10:15:56;;;;;;;1999.90;999.90;;;10.80;99.90;;;;;;5061739;28;20108;-74
2023/02/16 10:18:50;;;;;;;1999.90;999.90;;;10.90;99.90;;;;;;5070614;28;20086;-80
2023/02/16 10:21:23;;;;;;;1999.90;999.90;;;11.10;99.90;;;;;;5063292;28;20037;-75
2023/02/16 10:23:57;;;;;;;1999.90;999.90;;;11.30;99.90;;;;;;5065272;28;20059;-74
2023/02/16 10:26:37;;;;;;;1999.90;999.90;;;11.30;99.90;;;;;;5062090;28;20117;-74
2023/02/16 10:29:14;;;;;;;1999.90;999.90;;;11.10;99.90;;;;;;5062314;28;20580;-78
2023/02/16 10:32:08;;;;;;;1999.90;999.90;;;11.20;99.90;;;;;;5065613;28;20036;-78
2023/02/16 10:34:48;;;;;;;1999.90;999.90;;;11.00;99.90;;;;;;5018763;28;20075;-74
2023/02/16 10:37:36;;;;;;;1999.90;999.90;;;11.10;99.90;;;;;;5069556;28;20099;-73
2023/02/16 10:40:11;;;;;;;1999.90;999.90;;;11.30;99.90;;;;;;5067457;28;20029;-79
2023/02/16 10:43:03;;;;;;;1999.90;999.90;;;11.30;99.90;;;;;;5064398;28;20559;-78
2023/02/16 10:45:31;;;;;;;1999.90;999.90;;;11.30;99.90;;;;;;5057988;28;20048;-78
2023/02/16 10:47:57;;;;;;;1999.90;999.90;;;11.00;99.90;;;;;;5066531;28;20039;-78
2023/02/16 10:50:52;;;;;;;1999.90;999.90;;;11.00;99.90;;;;;;5089335;28;20032;-75
2023/02/16 10:53:20;;;;;;;1999.90;999.90;;;10.90;99.90;;;;;;5049065;28;20123;-79
2023/02/16 10:55:45;;;;;;;1999.90;999.90;;;10.80;99.90;;;;;;5062710;28;20139;-76
2023/02/16 10:58:25;;;;;;;1999.90;999.90;;;10.70;99.90;;;;;;5083912;28;20107;-80
2023/02/16 11:00:55;;;;;;;1999.90;999.90;;;10.60;99.90;;;;;;5079330;28;20115;-75
2023/02/16 11:03:24;;;;;;;1999.90;999.90;;;10.60;99.90;;;;;;5089481;28;20090;-74
2023/02/16 11:05:52;;;;;;;1999.90;999.90;;;10.60;99.90;;;;;;5080139;28;20943;-79
2023/02/16 11:08:17;;;;;;;1999.90;999.90;;;10.60;99.90;;;;;;5084979;28;20381;-81
2023/02/16 11:10:51;;;;;;;1999.90;999.90;;;10.70;99.90;;;;;;5084965;28;20023;-76
2023/02/16 11:13:32;;;;;;;1999.90;999.90;;;10.60;99.90;;;;;;5079164;28;20036;-82
2023/02/16 11:16:03;;;;;;;1999.90;999.90;;;10.50;99.90;;;;;;5074107;28;20059;-77
2023/02/16 11:18:33;;;;;;;1999.90;999.90;;;10.60;99.90;;;;;;5065040;28;20496;-79
2023/02/16 11:21:00;;;;;;;1999.90;999.90;;;10.60;99.90;;;;;;5082578;28;20038;-81
2023/02/16 11:23:28;;;;;;;1999.90;999.90;;;10.80;99.90;;;;;;5064417;28;20105;-80
2023/02/16 11:25:56;;;;;;;1999.90;999.90;;;10.90;99.90;;;;;;5087101;28;20032;-77
2023/02/16 11:28:42;;;;;;;1999.90;999.90;;;11.00;99.90;;;;;;5083470;28;20028;-78
2023/02/16 11:31:12;;;;;;;1999.90;999.90;;;11.00;99.90;;;;;;5085610;28;20033;-76
2023/02/16 11:33:40;;;;;;;1999.90;999.90;;;11.00;99.90;;;;;;5088292;28;20107;-80
2023/02/16 11:36:31;;;;;;;1999.90;999.90;;;11.10;99.90;;;;;;5070073;28;20024;-76
2023/02/16 11:39:13;;;;;;;1999.90;999.90;;;11.20;99.90;;;;;;5082887;28;20408;-76
2023/02/16 11:41:48;;;;;;;1999.90;999.90;;;11.30;99.90;;;;;;5079335;28;20040;-76
2023/02/16 11:44:25;;;;;;;1999.90;999.90;;;11.20;99.90;;;;;;5083156;28;20124;-81
2023/02/16 11:46:54;;;;;;;1999.90;999.90;;;11.10;99.90;;;;;;5078885;28;20456;-80
2023/02/16 11:49:30;;;;;;;1999.90;999.90;;;11.20;99.90;;;;;;5085228;28;20097;-80
2023/02/16 11:51:56;;;;;;;1999.90;999.90;;;11.20;99.90;;;;;;5078326;28;20037;-76
2023/02/16 11:54:22;;;;;;;1999.90;999.90;;;11.30;99.90;;;;;;5078375;28;20433;-76
2023/02/16 11:57:12;;;;;;;1999.90;999.90;;;11.40;99.90;;;;;;5079412;28;20538;-81
2023/02/16 11:59:39;;;;;;;1999.90;999.90;;;11.60;99.90;;;;;;5077970;28;20574;-80
2023/02/16 12:02:29;;;;;;;1999.90;999.90;;;11.70;99.90;;;;;;5080695;28;20035;-81
2023/02/16 12:05:06;;;;;;;1999.90;999.90;;;12.00;99.90;;;;;;5078501;28;20373;-79
2023/02/16 12:07:39;;;;;;;1999.90;999.90;;;12.20;99.90;;;;;;5076446;28;20040;-77
2023/02/16 12:11:02;;;;;;;1999.90;999.90;;;12.70;99.90;;;;;;5081400;28;20028;-81
2023/02/16 12:13:36;;;;;;;1999.90;999.90;;;13.10;99.90;;;;;;5007349;28;20041;-82
2023/02/16 12:16:14;;;;;;;1999.90;999.90;;;12.90;99.90;;;;;;4998202;28;20022;-82
2023/02/16 12:18:57;;;;;;;1999.90;999.90;;;13.00;99.90;;;;;;5052026;28;20043;-81
2023/02/16 12:21:44;;;;;;;1999.90;999.90;;;13.10;99.90;;;;;;5071071;28;20036;-77
2023/02/16 12:24:18;;;;;;;1999.90;999.90;;;13.10;99.90;;;;;;5082815;28;20115;-81
2023/02/16 12:26:48;;;;;;;1999.90;999.90;;;13.10;99.90;;;;;;5075617;28;20039;-82
2023/02/16 12:29:19;;;;;;;1999.90;999.90;;;13.20;99.90;;;;;;5083218;28;20036;-81
2023/02/16 12:32:09;;;;;;;1999.90;999.90;;;13.30;99.90;;;;;;5080826;28;20028;-77
2023/02/16 12:34:49;;;;;;;1999.90;999.90;;;13.30;99.90;;;;;;5083911;28;20030;-81
2023/02/16 12:37:30;;;;;;;1999.90;999.90;;;13.30;99.90;;;;;;5078385;28;20031;-80
2023/02/16 12:40:13;;;;;;;1999.90;999.90;;;13.40;99.90;;;;;;5057977;28;20038;-79
2023/02/16 12:42:58;;;;;;;1999.90;999.90;;;13.60;99.90;;;;;;5082824;28;20033;-76
2023/02/16 12:45:28;;;;;;;1999.90;999.90;;;13.50;99.90;;;;;;5078762;28;20111;-78
2023/02/16 12:48:25;;;;;;;1999.90;999.90;;;13.50;99.90;;;;;;5081112;28;20028;-76
2023/02/16 12:50:53;;;;;;;1999.90;999.90;;;13.60;99.90;;;;;;5080573;28;20487;-82
2023/02/16 12:53:31;;;;;;;1999.90;999.90;;;13.70;99.90;;;;;;5060727;28;20369;-79
2023/02/16 12:56:09;;;;;;;1999.90;999.90;;;13.80;99.90;;;;;;5078308;28;20013;-78
2023/02/16 12:58:40;;;;;;;1999.90;999.90;;;13.80;99.90;;;;;;5075100;28;20522;-77
2023/02/16 13:01:14;;;;;;;1999.90;999.90;;;13.90;99.90;;;;;;5077410;28;20043;-80